العودة   :: Flying Way :: > ._][_ سـاحة المطـار والطائرات Airport and Aircraft's yard _][_. > السلامة الجوية Flight Safety
تحديث الصفحة [حـادث] تحطم طائرة شحن عسكرية من طراز 707 اثناء هبوطها بالخطأ بمطار فتح بإيران ومصرع جميع طاقمها الـ 16
الملاحظات

السلامة الجوية Flight Safety   متابعة أخبار حوادث الطيران وتحليل المعلومات التي أدت إليها. راجع فهرس قسم  السلامة الجوية

أدوات الموضوع إبحث في الموضوع
الصورة الرمزية محمد احمد عسيري
Flying Way
قديم 14-01-2019, 05:11 PM   رقم المشاركة : [ 1 ]   
مشاهدة ملفه الشخصي
 
 
 
تم شكره 4,392 مرة في 2,461 مشاركة
محمد احمد عسيري يستحق الثقة والتقديرمحمد احمد عسيري يستحق الثقة والتقديرمحمد احمد عسيري يستحق الثقة والتقديرمحمد احمد عسيري يستحق الثقة والتقديرمحمد احمد عسيري يستحق الثقة والتقديرمحمد احمد عسيري يستحق الثقة والتقديرمحمد احمد عسيري يستحق الثقة والتقديرمحمد احمد عسيري يستحق الثقة والتقديرمحمد احمد عسيري يستحق الثقة والتقديرمحمد احمد عسيري يستحق الثقة والتقديرمحمد احمد عسيري يستحق الثقة والتقدير
معدل تقييم المستوى: 14360
Exclamation تحطم طائرة شحن عسكرية من طراز 707 اثناء هبوطها بالخطأ بمطار فتح بإيران ومصرع جميع طاقمها الـ 16

قُتل 13 شخصاً في تحطم طائرة شحن عسكرية في إيران، إثر انزلاقها عن مدرج واندلاع النيران فيها، وفق ما أكد الجيش.

وجاء في بيان للجيش أن الطائرة كانت محملة باللحوم من بشكيك عاصمة قرغيزستان عندما تحطمت قرب طهران، مضيفاً أن "13 شخصاً هم أفراد طاقم الطائرة قتلوا".

وكانت طائرة الشحن الإيرانية التابعة للجيش، من نوع بوينغ 707، تحطمت الاثنين، حيث كانت متجهة من مطار بيشكك في قرغيزستان إلى مطار بيام في كرج غرب العاصمة طهران، وفق ما ذكرت وكالة أنباء "فارس".

ونشرت الوكالة بياناً للجيش جاء فيه أن "طائرة شحن من طراز بوينغ 707 وتحمل لحوماً من بشكك في قرغيزستان هبطت اضطرارياً في مطار فتح اليوم.. ونُقل مهندس الرحلة إلى المستشفى".

وقال التلفزيون الإيراني إنه تم العثور على 7 جثث لأشخاص كانوا على متن الطائرة، مضيفاً أن عملية البحث عن الباقين ما زالت مستمرة.

وقال بيرحسين كوليوند، مدير إدارة الطوارئ الإيرانية: "عثرنا على 7 جثث في مكان حطام الطائرة.. عملية البحث مستمرة".

واتجه الطيار بالخطأ إلى مطار فتح، بحسب الوكالة، ولم يستطع السيطرة على الطائرة فخرجت من المدرج واصطدمت بحائط المطار، وبعد تدميره اتجهت نحو مجمع سكني قريب.

وقال المتحدث باسم منظمة الطيران، رضا جعفر زاده، للتلفزيون الرسمي الإيراني، إن "طائرة الشحن من طراز بوينغ 707 لم تتمكن من بلوغ المدرج خلال الهبوط".

يشار إلى أن الطائرة تابعة للجيش الإيراني، وكانت تحمل اللحم من قرغيزستان إلى إيران.

ويستخدم الحرس الثوري للشحن طائرات من نوع بوينغ 707 للشحن.






https://www.alarabiya.net/ar/iran/20...%A7%D8%A8.html

__________________________________

Narrative:
A Boeing 707-300 cargo plane, operated by SAHA Airlines (leased from the Iranian Air Force) has crashed near Karaj, Iran, in adverse weather conditions. According to first reports, the plane landed on the wrong airport: Fath Airport (military airstrip), instead of Karaj-Payam International Airport. The runways of both airports are almost in line. The thresholds of runways 30 and 31L are 10 km apart.
The pilot lost control of the airplane upon landing. It smashed through an airport wall and came to rest in a town near the airport. The airplane was transporting meat.
According to first reports the plane carried 16 persons with 15 fatalities accounted for. One occupant survived the crash. The plane was destroyed.

Weather about the time of the incident (06:00 LT = 0230Z):
OIIP 140600Z 13010KT 3000 BR FEW025 SCT035 OVC090 00/M02 Q1013
OIIP 140500Z 14010KT 3000 BR FEW025 SCT035 OVC080 M00/M01 Q1013
OIIP 140400Z 16010KT 4000 BR FEW025 SCT035 OVC090 00/M01 Q1012 RERA
OIIP 140300Z 12010KT 3000 SN RA FEW025 SCT035 OVC080 M00/M01 Q1012


https://aviation-safety.net/wikibase/wiki.php?id=220796

الطائرة المنكوبة EP-CPP

قديم 14-01-2019, 05:30 PM   رقم المشاركة : [ 2 ]   
محمد احمد عسيري
Flying Way
الصورة الرمزية محمد احمد عسيري
Exclamation رد: تحطم طائرة شحن عسكرية من طراز 707 اثناء هبوطها بالخطأ بمطار فتح بإيران ومصرع جميع طاقمها الـ 16


Crash: Saha B703 at Fath on Jan 14th 2019, landed at wrong airport


A Saha Airlines Boeing 707-300 freighter, registration EP-CPP performing a freight flight from Bishkek (Kyrgyzstan) to Karaj (Iran) with 16 crew and a cargo of meat, was on approach to Karaj's Payam Airport's runway 30 (length 3660 meters/12,000 feet) when the crew descended towards and landed on Fath's airport 31L (length 1000 meters/3300 feet), overran the runway, broke through an airport perimeter wall, crashed into houses past the end of the runway and burst into flames at about 08:30L (03:00Z). So far one survivor (the flight engineer) and 16 bodies have been recovered. A number of houses were damaged.

Emergency services reported 16 bodies (15 male, 1 female) have been recovered so far. One survivor was taken to a hospital.

Another aircraft had confused the same airports but gone around in time, see Incident: Taban MD88 at Karaj on Nov 16th 2018, went around from very low height at wrong airport.

Iran's Air Force confirmed the aircraft belonged to Saha Airlines. The only survivor recovered so far was the flight engineer on board of the aircraft.

Metars Karaj:
OIIP 140400Z 16010KT 4000 BR FEW025 SCT035 OVC090 00/M01 Q1012 RERA=
OIIP 140300Z 12010KT 3000 SN RA FEW025 SCT035 OVC080 M00/M01 Q1012=
OIIP 131800Z 14008KT 6000 SCT035 BKN100 M01/M07 Q1014=

Scene at Fath Airport later the day


Scene at Fath Airport


Detail Map


Map


http://avherald.com/h?article=4c2d9613&opt=0








  إقتباس
2 أعضاء قالوا شكراً لـ محمد احمد عسيري على المشاركة المفيدة:
alzaiem (15-01-2019), عاشق A380 (14-01-2019)
قديم 14-01-2019, 09:43 PM   رقم المشاركة : [ 3 ]   
محمد احمد عسيري
Flying Way
الصورة الرمزية محمد احمد عسيري
Eyeglasses تحطم طائرة شحن عسكرية من طراز 707 اثناء هبوطها بالخطأ بمطار فتح بإيران ومصرع جميع طاقمها الـ 16

ألقت حادثة تحطم طائرة شحن عسكرية إيرانية نوع "بوينغ 707" في كرج (غرب طهران) ومقتل 15 من طاقمها وجرح الطيار، الضوء على الأسطول الجوي الإيراني المتهالك الذي يتسبب في استمرار وقوع مثل هذه الحوادث خلال السنوات الأخيرة الماضية.


وبالرغم من أن إيران تخصص ميزانيات كبيرة للإنفاق العسكري، إلا أنها تواجه صعوبات كبيرة في تحديث طائرات أسطولها الجوي المتهالك، نتيجة العقوبات الأميركية والدولية التي فرضت عليها بسبب برنامجها النووي المثير للجدل خلال الأعوام الماضية، وكذلك العقوبات الجديدة المفروضة على برامجها التسليحية والصاروخية.


ووفقاً لشبكة "أمن الطيران الإيراني"، فقد تعرض الطيران الإيراني على طول تاريخه لـ1530 كارثة جوية، كانت 40 منها فقط في عهد نظام الشاه الذي سقط في 1979.


وفي يونيو/حزيران الماضي، تحطمت مقاتلة عسكرية إيرانية من طراز "إف 7" بالصحراء في أصفهان وسط البلاد، تمكن طياريها من الهبوط بسلامة. وكانت المقاتلة تتبع للجيش الإيراني الذي أصدر بياناً أعلن فيه بأن الطيار ومساعده تمكنا من الهبوط بسلامة بعد ما قادا الطائرة لتسقط بمنطقة غير مأهولة بالسكان بعد فقدان السيطرة عليها لأسباب فنية.


وتزايدت حوادث سقوط وتحطم الطائرات في إيران خلال السنوات الأخيرة، حيث إنه في فبراير/شباط الماضي، تحطمت طائرة ركاب إيرانية كانت تحمل 60 راكباً و6 أفراد للطاقم بأصفهان.


كما أعلن الحرس الثوري الإيراني عن تحطم مقاتلة تابعة لقواته من طراز "جايرو بلن" في إقليم بلوشستان (جنوب شرقي إيران) ومقتل قائدها في ديسمبر/كانون الأول 2016 عندما كانت في مهمة عسكرية.


وفي مايو/أيار 2016 سقطت مقاتلة من نوع "ميغ 29" وقُتل طيارها الرائد روزبه ناظريان، الذي أصيب برأسه أثناء هبوط اضطراري في محافظة همدان، غرب إيران.


كما تحطمت مقاتلة من طراز "إف 7" خلال طلعة تدريبية في 27 أبريل/نيسان من نفس العام، لكن قائدها ومساعده تمكنا من القفز قبل لحظة من الارتطام.


كما سقطت طائرة حربية تابعة للجيش الإيراني من طراز "إف 4" بسبب خلل فني في يناير/كانون الثاني 2016، بالقرب من مدينة تشابهار، على بحر عمان، ما أدى إلى مقتل طاقمها المكون من الطيار ومساعده.


يذكر أن العقوبات الأميركية الأخيرة شملت أسطول الطيران المملوك للدولة إيرانية، بسبب استخدامه في دعم الإرهاب ونقل المقاتلين والأسلحة والعتاد إلى الدول التي تتدخل بها طهران عسكريا.


وشملت العقوبات الخطوط الإيرانية "إيران إير" وطيران "ماهان" وخطوط "معراج" و"كاسبيان" و"بويا"، ما أدى إلى إلغاء العديد من الرحلات وشل حركة أسطول الطيران الإيراني.


وتفيد التقارير بأنه تم إلغاء العديد من الرحلات الإيرانية في مطارات مختلفة بعد بدء الجولة الجديدة من العقوبات الأميركية، حيث إنه في بعض المطارات الدولية، لا يتم السماح للطائرات الإيرانية بتعبئة الوقود أو بالقيام بالإجراءات التقنية والصيانة.


وقد واجهت الطائرات الإيرانية مشكلات في ما لا يقل عن ثمان مدن آسيوية وأوروبية، وتم إلغاء بعض هذه الرحلات وتم تأجيل بعضها.


وبالتفاصيل، شملت العقوبات شركة خطوط طيران "هوما" الإيرانية و65 طائرة مملوكة للشركة، وتم تصنيفها على القائمة السوداء في المرحلة الثانية من العقوبات الأميركية.


كما أن 39 طائرة تملكها شركات "ماهان" و"معراج" و"كاسبيان" و"بويا" أضيفت لقائمة العقوبات التي حددها بيان لمكتب مراقبة الأصول الأجنبية "أوفاك" التابع لوزارة الخزانة الأميركية.


https://www.alarabiya.net/ar/iran/20...%B1%D8%A9.html


http://www.flyingway.com/vb/showthread.php?t=173013
  إقتباس
قديم 15-01-2019, 05:11 PM   رقم المشاركة : [ 4 ]   
محمد احمد عسيري
Flying Way
الصورة الرمزية محمد احمد عسيري
Imging رد: تحطم طائرة شحن عسكرية من طراز 707 اثناء هبوطها بالخطأ بمطار فتح بإيران ومصرع جميع طاقمها الـ 16











  إقتباس
إضافة رد

«     تحطم طائرة مروحية تابعة للشرطة في البرازيل وجار إنقاذ أفراد طاقمها   |    مقاتلات إندونيسية تجبر طائرة شحن إثيوبية 777 على الهبوط    »


الذين يشاهدون محتوى الموضوع الآن : 1 ( الأعضاء 0 والزوار 1)
 
أدوات الموضوع إبحث في الموضوع
إبحث في الموضوع:

البحث المتقدم

الانتقال السريع

الساعة الآن 05:08 PM.
Powered by vBulletin® Version 3.8.9
Copyright ©2000 - 2019, vBulletin Solutions, Inc.
حق العلم والمعرفة يعادل حق الحياة للأنسان - لذا نحن كمسؤلين في الشبكة متنازلون عن جميع الحقوق
All trademarks and copyrights held by respective owners. Member comments are owned by the poster.
خط الطيران 2004-2018